sensor_id;sensor_type;location;lat;lon;timestamp;P1;durP1;ratioP1;P2;durP2;ratioP2
55134;SDS011;41031;44.750;11.308;2023-02-03T00:02:03;10.80;;;6.67;;
55134;SDS011;41031;44.750;11.308;2023-02-03T00:04:30;8.70;;;5.97;;
55134;SDS011;41031;44.750;11.308;2023-02-03T00:06:57;11.03;;;7.13;;
55134;SDS011;41031;44.750;11.308;2023-02-03T00:09:24;10.47;;;6.83;;
55134;SDS011;41031;44.750;11.308;2023-02-03T00:11:51;12.43;;;6.90;;
55134;SDS011;41031;44.750;11.308;2023-02-03T00:14:19;10.77;;;6.47;;
55134;SDS011;41031;44.750;11.308;2023-02-03T00:16:46;10.80;;;7.20;;
55134;SDS011;41031;44.750;11.308;2023-02-03T00:19:13;9.67;;;7.23;;
55134;SDS011;41031;44.750;11.308;2023-02-03T00:21:42;10.17;;;6.50;;
55134;SDS011;41031;44.750;11.308;2023-02-03T00:24:10;10.30;;;6.93;;
55134;SDS011;41031;44.750;11.308;2023-02-03T00:26:41;10.30;;;7.30;;
55134;SDS011;41031;44.750;11.308;2023-02-03T00:29:09;9.60;;;7.00;;
55134;SDS011;41031;44.750;11.308;2023-02-03T00:31:36;14.70;;;7.03;;
55134;SDS011;41031;44.750;11.308;2023-02-03T00:34:04;12.27;;;6.97;;
55134;SDS011;41031;44.750;11.308;2023-02-03T00:36:31;9.03;;;6.77;;
55134;SDS011;41031;44.750;11.308;2023-02-03T00:38:59;12.80;;;7.33;;
55134;SDS011;41031;44.750;11.308;2023-02-03T00:41:27;14.20;;;7.40;;
55134;SDS011;41031;44.750;11.308;2023-02-03T00:43:56;11.87;;;7.57;;
55134;SDS011;41031;44.750;11.308;2023-02-03T00:46:23;10.53;;;7.10;;
55134;SDS011;41031;44.750;11.308;2023-02-03T00:48:50;12.80;;;8.07;;
55134;SDS011;41031;44.750;11.308;2023-02-03T00:51:17;12.63;;;7.80;;
55134;SDS011;41031;44.750;11.308;2023-02-03T00:53:44;13.17;;;7.57;;
55134;SDS011;41031;44.750;11.308;2023-02-03T00:56:11;11.53;;;7.30;;
55134;SDS011;41031;44.750;11.308;2023-02-03T00:58:38;9.67;;;7.37;;
55134;SDS011;41031;44.750;11.308;2023-02-03T01:01:06;13.67;;;7.37;;
55134;SDS011;41031;44.750;11.308;2023-02-03T01:03:33;10.27;;;7.27;;
55134;SDS011;41031;44.750;11.308;2023-02-03T01:06:34;15.63;;;7.93;;
55134;SDS011;41031;44.750;11.308;2023-02-03T01:08:54;12.50;;;7.90;;
55134;SDS011;41031;44.750;11.308;2023-02-03T01:11:22;9.60;;;7.00;;
55134;SDS011;41031;44.750;11.308;2023-02-03T01:13:53;11.43;;;7.50;;
55134;SDS011;41031;44.750;11.308;2023-02-03T01:16:23;12.30;;;7.80;;
55134;SDS011;41031;44.750;11.308;2023-02-03T01:18:53;14.63;;;6.83;;
55134;SDS011;41031;44.750;11.308;2023-02-03T01:21:21;11.80;;;8.30;;
55134;SDS011;41031;44.750;11.308;2023-02-03T01:23:50;9.40;;;6.77;;
55134;SDS011;41031;44.750;11.308;2023-02-03T01:26:18;10.17;;;6.73;;
55134;SDS011;41031;44.750;11.308;2023-02-03T01:28:53;11.80;;;8.03;;
55134;SDS011;41031;44.750;11.308;2023-02-03T01:31:23;8.90;;;7.07;;
55134;SDS011;41031;44.750;11.308;2023-02-03T01:33:56;11.80;;;6.43;;
55134;SDS011;41031;44.750;11.308;2023-02-03T01:36:23;16.37;;;7.53;;
55134;SDS011;41031;44.750;11.308;2023-02-03T01:38:52;11.37;;;7.40;;
55134;SDS011;41031;44.750;11.308;2023-02-03T01:41:21;15.80;;;7.70;;
55134;SDS011;41031;44.750;11.308;2023-02-03T01:43:57;10.07;;;7.43;;
55134;SDS011;41031;44.750;11.308;2023-02-03T01:49:11;12.37;;;7.33;;
55134;SDS011;41031;44.750;11.308;2023-02-03T01:51:44;13.33;;;7.40;;
55134;SDS011;41031;44.750;11.308;2023-02-03T01:54:22;14.10;;;7.10;;
55134;SDS011;41031;44.750;11.308;2023-02-03T01:56:54;14.80;;;8.47;;
55134;SDS011;41031;44.750;11.308;2023-02-03T01:59:26;11.70;;;7.87;;
55134;SDS011;41031;44.750;11.308;2023-02-03T02:01:55;16.77;;;9.80;;
55134;SDS011;41031;44.750;11.308;2023-02-03T02:04:24;16.93;;;9.53;;
55134;SDS011;41031;44.750;11.308;2023-02-03T02:06:59;13.93;;;8.80;;
55134;SDS011;41031;44.750;11.308;2023-02-03T02:09:27;11.40;;;7.50;;
55134;SDS011;41031;44.750;11.308;2023-02-03T02:11:54;11.23;;;7.53;;
55134;SDS011;41031;44.750;11.308;2023-02-03T02:14:21;14.10;;;7.70;;
55134;SDS011;41031;44.750;11.308;2023-02-03T02:16:52;10.40;;;7.33;;
55134;SDS011;41031;44.750;11.308;2023-02-03T02:22:39;7.90;;;6.57;;
55134;SDS011;41031;44.750;11.308;2023-02-03T02:33:42;12.57;;;8.20;;
55134;SDS011;41031;44.750;11.308;2023-02-03T02:36:35;13.80;;;7.33;;
55134;SDS011;41031;44.750;11.308;2023-02-03T02:39:35;12.23;;;7.93;;
55134;SDS011;41031;44.750;11.308;2023-02-03T02:42:09;15.80;;;8.70;;
55134;SDS011;41031;44.750;11.308;2023-02-03T02:44:52;14.90;;;8.13;;
55134;SDS011;41031;44.750;11.308;2023-02-03T02:47:23;15.53;;;8.67;;
55134;SDS011;41031;44.750;11.308;2023-02-03T02:49:53;11.23;;;7.13;;
55134;SDS011;41031;44.750;11.308;2023-02-03T02:52:47;11.23;;;7.50;;
55134;SDS011;41031;44.750;11.308;2023-02-03T02:55:20;14.17;;;8.00;;
55134;SDS011;41031;44.750;11.308;2023-02-03T02:57:57;14.27;;;8.30;;
55134;SDS011;41031;44.750;11.308;2023-02-03T03:00:30;15.47;;;8.63;;
55134;SDS011;41031;44.750;11.308;2023-02-03T03:03:05;14.97;;;7.60;;
55134;SDS011;41031;44.750;11.308;2023-02-03T03:05:41;14.93;;;8.03;;
55134;SDS011;41031;44.750;11.308;2023-02-03T03:08:13;7.90;;;6.30;;
55134;SDS011;41031;44.750;11.308;2023-02-03T03:10:44;13.90;;;8.27;;
55134;SDS011;41031;44.750;11.308;2023-02-03T03:13:22;12.53;;;8.17;;
55134;SDS011;41031;44.750;11.308;2023-02-03T03:15:53;13.10;;;7.27;;
55134;SDS011;41031;44.750;11.308;2023-02-03T03:18:24;10.03;;;6.97;;
55134;SDS011;41031;44.750;11.308;2023-02-03T03:21:02;12.80;;;8.07;;
55134;SDS011;41031;44.750;11.308;2023-02-03T03:23:34;12.77;;;7.80;;
55134;SDS011;41031;44.750;11.308;2023-02-03T03:26:09;15.80;;;9.33;;
55134;SDS011;41031;44.750;11.308;2023-02-03T03:28:48;17.40;;;9.03;;
55134;SDS011;41031;44.750;11.308;2023-02-03T03:31:18;12.67;;;8.27;;
55134;SDS011;41031;44.750;11.308;2023-02-03T03:33:45;10.60;;;6.93;;
55134;SDS011;41031;44.750;11.308;2023-02-03T03:36:24;13.60;;;8.77;;
55134;SDS011;41031;44.750;11.308;2023-02-03T03:39:07;15.70;;;8.60;;
55134;SDS011;41031;44.750;11.308;2023-02-03T03:41:55;11.87;;;8.23;;
55134;SDS011;41031;44.750;11.308;2023-02-03T03:44:27;12.73;;;8.30;;
55134;SDS011;41031;44.750;11.308;2023-02-03T03:47:05;10.33;;;7.90;;
55134;SDS011;41031;44.750;11.308;2023-02-03T03:49:43;12.47;;;7.60;;
55134;SDS011;41031;44.750;11.308;2023-02-03T03:52:14;13.00;;;7.13;;
55134;SDS011;41031;44.750;11.308;2023-02-03T03:54:45;11.77;;;7.10;;
55134;SDS011;41031;44.750;11.308;2023-02-03T03:57:17;10.13;;;7.37;;
55134;SDS011;41031;44.750;11.308;2023-02-03T03:59:49;14.03;;;8.23;;
55134;SDS011;41031;44.750;11.308;2023-02-03T04:02:17;13.27;;;8.63;;
55134;SDS011;41031;44.750;11.308;2023-02-03T04:04:45;15.10;;;8.17;;
55134;SDS011;41031;44.750;11.308;2023-02-03T04:07:14;14.30;;;8.33;;
55134;SDS011;41031;44.750;11.308;2023-02-03T04:09:41;16.60;;;9.80;;
55134;SDS011;41031;44.750;11.308;2023-02-03T04:12:17;36.20;;;24.03;;
55134;SDS011;41031;44.750;11.308;2023-02-03T04:14:50;44.27;;;26.80;;
55134;SDS011;41031;44.750;11.308;2023-02-03T04:17:17;40.07;;;27.03;;
55134;SDS011;41031;44.750;11.308;2023-02-03T04:19:46;49.23;;;34.33;;
55134;SDS011;41031;44.750;11.308;2023-02-03T04:22:13;64.37;;;37.90;;
55134;SDS011;41031;44.750;11.308;2023-02-03T04:24:40;58.97;;;38.70;;
55134;SDS011;41031;44.750;11.308;2023-02-03T04:27:07;78.57;;;40.83;;
55134;SDS011;41031;44.750;11.308;2023-02-03T04:29:34;67.43;;;40.60;;
55134;SDS011;41031;44.750;11.308;2023-02-03T04:32:01;73.97;;;40.77;;
55134;SDS011;41031;44.750;11.308;2023-02-03T04:34:29;67.47;;;40.03;;
55134;SDS011;41031;44.750;11.308;2023-02-03T04:36:56;70.33;;;43.03;;
55134;SDS011;41031;44.750;11.308;2023-02-03T04:39:22;74.23;;;43.60;;
55134;SDS011;41031;44.750;11.308;2023-02-03T04:41:49;66.53;;;43.47;;
55134;SDS011;41031;44.750;11.308;2023-02-03T04:44:16;69.83;;;44.17;;
55134;SDS011;41031;44.750;11.308;2023-02-03T04:46:43;62.67;;;42.93;;
55134;SDS011;41031;44.750;11.308;2023-02-03T04:49:10;69.17;;;43.47;;
55134;SDS011;41031;44.750;11.308;2023-02-03T04:51:37;80.33;;;44.40;;
55134;SDS011;41031;44.750;11.308;2023-02-03T04:54:04;74.63;;;40.17;;
55134;SDS011;41031;44.750;11.308;2023-02-03T04:56:32;72.60;;;43.53;;
55134;SDS011;41031;44.750;11.308;2023-02-03T04:58:58;107.20;;;43.63;;
55134;SDS011;41031;44.750;11.308;2023-02-03T05:01:26;66.10;;;43.63;;
55134;SDS011;41031;44.750;11.308;2023-02-03T05:03:53;83.37;;;44.90;;
55134;SDS011;41031;44.750;11.308;2023-02-03T05:06:23;68.80;;;42.10;;
55134;SDS011;41031;44.750;11.308;2023-02-03T05:08:51;71.20;;;44.53;;
55134;SDS011;41031;44.750;11.308;2023-02-03T05:11:19;88.57;;;45.27;;
55134;SDS011;41031;44.750;11.308;2023-02-03T05:13:46;83.90;;;44.53;;
55134;SDS011;41031;44.750;11.308;2023-02-03T05:16:13;104.67;;;46.43;;
55134;SDS011;41031;44.750;11.308;2023-02-03T05:18:40;74.77;;;46.03;;
55134;SDS011;41031;44.750;11.308;2023-02-03T05:21:07;73.03;;;47.67;;
55134;SDS011;41031;44.750;11.308;2023-02-03T05:23:34;69.47;;;44.10;;
55134;SDS011;41031;44.750;11.308;2023-02-03T05:26:02;80.67;;;48.93;;
55134;SDS011;41031;44.750;11.308;2023-02-03T05:28:30;102.03;;;46.13;;
55134;SDS011;41031;44.750;11.308;2023-02-03T05:30:57;187.27;;;52.53;;
55134;SDS011;41031;44.750;11.308;2023-02-03T05:33:25;137.03;;;49.70;;
55134;SDS011;41031;44.750;11.308;2023-02-03T05:35:52;189.50;;;51.23;;
55134;SDS011;41031;44.750;11.308;2023-02-03T05:38:19;300.17;;;54.27;;
55134;SDS011;41031;44.750;11.308;2023-02-03T05:40:46;200.90;;;53.03;;
55134;SDS011;41031;44.750;11.308;2023-02-03T05:43:33;296.67;;;55.40;;
55134;SDS011;41031;44.750;11.308;2023-02-03T05:46:00;229.77;;;59.10;;
55134;SDS011;41031;44.750;11.308;2023-02-03T05:48:28;262.67;;;57.27;;
55134;SDS011;41031;44.750;11.308;2023-02-03T05:50:56;277.47;;;56.60;;
55134;SDS011;41031;44.750;11.308;2023-02-03T05:53:23;266.40;;;55.20;;
55134;SDS011;41031;44.750;11.308;2023-02-03T05:55:51;540.23;;;64.47;;
55134;SDS011;41031;44.750;11.308;2023-02-03T05:58:18;326.87;;;57.43;;
55134;SDS011;41031;44.750;11.308;2023-02-03T06:00:45;236.13;;;59.57;;
55134;SDS011;41031;44.750;11.308;2023-02-03T06:03:12;423.33;;;59.87;;
55134;SDS011;41031;44.750;11.308;2023-02-03T06:05:39;791.07;;;73.87;;
55134;SDS011;41031;44.750;11.308;2023-02-03T06:08:07;338.23;;;60.50;;
55134;SDS011;41031;44.750;11.308;2023-02-03T06:10:34;357.10;;;61.07;;
55134;SDS011;41031;44.750;11.308;2023-02-03T06:13:08;411.93;;;63.00;;
55134;SDS011;41031;44.750;11.308;2023-02-03T06:15:36;425.53;;;67.30;;
55134;SDS011;41031;44.750;11.308;2023-02-03T06:18:03;281.63;;;60.00;;
55134;SDS011;41031;44.750;11.308;2023-02-03T06:20:30;302.47;;;60.03;;
55134;SDS011;41031;44.750;11.308;2023-02-03T06:22:58;316.23;;;65.33;;
55134;SDS011;41031;44.750;11.308;2023-02-03T06:25:25;306.67;;;64.20;;
55134;SDS011;41031;44.750;11.308;2023-02-03T06:27:53;308.33;;;59.93;;
55134;SDS011;41031;44.750;11.308;2023-02-03T06:30:20;232.60;;;59.40;;
55134;SDS011;41031;44.750;11.308;2023-02-03T06:32:49;158.57;;;57.60;;
55134;SDS011;41031;44.750;11.308;2023-02-03T06:35:16;215.07;;;59.63;;
55134;SDS011;41031;44.750;11.308;2023-02-03T06:37:43;412.10;;;65.43;;
55134;SDS011;41031;44.750;11.308;2023-02-03T06:40:11;274.90;;;59.90;;
55134;SDS011;41031;44.750;11.308;2023-02-03T06:42:38;215.43;;;57.63;;
55134;SDS011;41031;44.750;11.308;2023-02-03T06:45:05;433.60;;;67.73;;
55134;SDS011;41031;44.750;11.308;2023-02-03T06:47:33;410.77;;;63.47;;
55134;SDS011;41031;44.750;11.308;2023-02-03T06:50:01;231.47;;;55.87;;
55134;SDS011;41031;44.750;11.308;2023-02-03T06:52:28;200.87;;;57.47;;
55134;SDS011;41031;44.750;11.308;2023-02-03T06:54:55;200.80;;;58.47;;
55134;SDS011;41031;44.750;11.308;2023-02-03T06:57:21;192.37;;;61.43;;
55134;SDS011;41031;44.750;11.308;2023-02-03T06:59:48;344.50;;;61.73;;
55134;SDS011;41031;44.750;11.308;2023-02-03T07:02:15;172.47;;;57.40;;
55134;SDS011;41031;44.750;11.308;2023-02-03T07:04:42;170.67;;;53.27;;
55134;SDS011;41031;44.750;11.308;2023-02-03T07:07:10;306.73;;;62.20;;
55134;SDS011;41031;44.750;11.308;2023-02-03T07:09:38;144.00;;;55.83;;
55134;SDS011;41031;44.750;11.308;2023-02-03T07:12:06;202.57;;;59.87;;
55134;SDS011;41031;44.750;11.308;2023-02-03T07:14:34;688.27;;;77.93;;
55134;SDS011;41031;44.750;11.308;2023-02-03T07:17:01;517.20;;;71.73;;
55134;SDS011;41031;44.750;11.308;2023-02-03T07:19:28;517.73;;;69.53;;
55134;SDS011;41031;44.750;11.308;2023-02-03T07:21:55;507.40;;;69.73;;
55134;SDS011;41031;44.750;11.308;2023-02-03T07:24:22;261.37;;;61.60;;
55134;SDS011;41031;44.750;11.308;2023-02-03T07:26:49;217.70;;;61.37;;
55134;SDS011;41031;44.750;11.308;2023-02-03T07:29:17;325.07;;;67.00;;
55134;SDS011;41031;44.750;11.308;2023-02-03T07:31:44;659.93;;;78.83;;
55134;SDS011;41031;44.750;11.308;2023-02-03T07:34:11;607.30;;;78.70;;
55134;SDS011;41031;44.750;11.308;2023-02-03T07:36:38;723.47;;;85.50;;
55134;SDS011;41031;44.750;11.308;2023-02-03T07:39:06;567.57;;;74.50;;
55134;SDS011;41031;44.750;11.308;2023-02-03T07:41:33;549.20;;;77.87;;
55134;SDS011;41031;44.750;11.308;2023-02-03T07:44:00;856.73;;;88.93;;
55134;SDS011;41031;44.750;11.308;2023-02-03T07:46:27;264.37;;;65.87;;
55134;SDS011;41031;44.750;11.308;2023-02-03T07:48:54;378.80;;;70.43;;
55134;SDS011;41031;44.750;11.308;2023-02-03T07:51:22;714.70;;;88.27;;
55134;SDS011;41031;44.750;11.308;2023-02-03T07:53:49;888.77;;;105.53;;
55134;SDS011;41031;44.750;11.308;2023-02-03T07:56:16;558.43;;;86.60;;
55134;SDS011;41031;44.750;11.308;2023-02-03T07:58:42;756.10;;;92.17;;
55134;SDS011;41031;44.750;11.308;2023-02-03T08:01:14;482.87;;;79.17;;
55134;SDS011;41031;44.750;11.308;2023-02-03T08:03:42;333.47;;;70.77;;
55134;SDS011;41031;44.750;11.308;2023-02-03T08:06:09;302.10;;;76.57;;
55134;SDS011;41031;44.750;11.308;2023-02-03T08:08:36;1038.73;;;99.77;;
55134;SDS011;41031;44.750;11.308;2023-02-03T08:11:03;589.10;;;85.20;;
55134;SDS011;41031;44.750;11.308;2023-02-03T08:13:30;519.57;;;82.13;;
55134;SDS011;41031;44.750;11.308;2023-02-03T08:15:57;454.37;;;76.23;;
55134;SDS011;41031;44.750;11.308;2023-02-03T08:18:24;260.80;;;70.60;;
55134;SDS011;41031;44.750;11.308;2023-02-03T08:20:51;699.57;;;85.67;;
55134;SDS011;41031;44.750;11.308;2023-02-03T08:23:18;497.77;;;76.83;;
55134;SDS011;41031;44.750;11.308;2023-02-03T08:25:49;487.13;;;79.23;;
55134;SDS011;41031;44.750;11.308;2023-02-03T08:28:19;467.07;;;79.40;;
55134;SDS011;41031;44.750;11.308;2023-02-03T08:30:46;518.60;;;80.80;;
55134;SDS011;41031;44.750;11.308;2023-02-03T08:33:13;377.00;;;74.57;;
55134;SDS011;41031;44.750;11.308;2023-02-03T08:35:43;272.87;;;75.00;;
55134;SDS011;41031;44.750;11.308;2023-02-03T08:38:12;260.43;;;73.40;;
55134;SDS011;41031;44.750;11.308;2023-02-03T08:40:39;328.87;;;78.00;;
55134;SDS011;41031;44.750;11.308;2023-02-03T08:43:06;296.67;;;82.33;;
55134;SDS011;41031;44.750;11.308;2023-02-03T08:45:33;272.07;;;83.97;;
55134;SDS011;41031;44.750;11.308;2023-02-03T08:48:00;319.90;;;79.83;;
55134;SDS011;41031;44.750;11.308;2023-02-03T08:50:27;259.30;;;76.00;;
55134;SDS011;41031;44.750;11.308;2023-02-03T08:52:55;244.27;;;84.20;;
55134;SDS011;41031;44.750;11.308;2023-02-03T08:55:21;255.77;;;80.33;;
55134;SDS011;41031;44.750;11.308;2023-02-03T08:57:49;351.73;;;82.90;;
55134;SDS011;41031;44.750;11.308;2023-02-03T09:00:17;254.30;;;81.57;;
55134;SDS011;41031;44.750;11.308;2023-02-03T09:02:44;290.43;;;84.10;;
55134;SDS011;41031;44.750;11.308;2023-02-03T09:05:11;235.23;;;78.70;;
55134;SDS011;41031;44.750;11.308;2023-02-03T09:07:38;229.77;;;76.50;;
55134;SDS011;41031;44.750;11.308;2023-02-03T09:10:05;259.67;;;74.83;;
55134;SDS011;41031;44.750;11.308;2023-02-03T09:12:32;234.33;;;72.77;;
55134;SDS011;41031;44.750;11.308;2023-02-03T09:14:59;253.70;;;72.23;;
55134;SDS011;41031;44.750;11.308;2023-02-03T09:17:26;212.77;;;67.03;;
55134;SDS011;41031;44.750;11.308;2023-02-03T09:19:53;207.67;;;70.50;;
55134;SDS011;41031;44.750;11.308;2023-02-03T09:22:20;187.63;;;69.47;;
55134;SDS011;41031;44.750;11.308;2023-02-03T09:24:47;209.57;;;71.87;;
55134;SDS011;41031;44.750;11.308;2023-02-03T09:27:16;210.27;;;68.43;;
55134;SDS011;41031;44.750;11.308;2023-02-03T09:29:43;210.63;;;72.17;;
55134;SDS011;41031;44.750;11.308;2023-02-03T09:32:10;182.30;;;69.30;;
55134;SDS011;41031;44.750;11.308;2023-02-03T09:34:40;212.03;;;73.63;;
55134;SDS011;41031;44.750;11.308;2023-02-03T09:37:08;209.30;;;68.30;;
55134;SDS011;41031;44.750;11.308;2023-02-03T09:39:35;203.90;;;77.43;;
55134;SDS011;41031;44.750;11.308;2023-02-03T09:48:05;212.10;;;75.43;;
55134;SDS011;41031;44.750;11.308;2023-02-03T09:50:39;203.67;;;76.27;;
55134;SDS011;41031;44.750;11.308;2023-02-03T09:53:13;215.70;;;73.50;;
55134;SDS011;41031;44.750;11.308;2023-02-03T09:55:45;200.53;;;74.67;;
55134;SDS011;41031;44.750;11.308;2023-02-03T10:00:42;202.00;;;72.13;;
55134;SDS011;41031;44.750;11.308;2023-02-03T10:06:30;198.87;;;69.17;;
55134;SDS011;41031;44.750;11.308;2023-02-03T10:17:45;182.90;;;70.50;;
55134;SDS011;41031;44.750;11.308;2023-02-03T10:23:08;186.63;;;70.83;;
55134;SDS011;41031;44.750;11.308;2023-02-03T10:25:44;173.83;;;68.43;;
55134;SDS011;41031;44.750;11.308;2023-02-03T10:28:24;180.77;;;72.93;;
55134;SDS011;41031;44.750;11.308;2023-02-03T10:30:58;173.47;;;70.63;;
55134;SDS011;41031;44.750;11.308;2023-02-03T10:33:28;157.33;;;66.60;;
55134;SDS011;41031;44.750;11.308;2023-02-03T10:38:48;173.93;;;69.57;;
55134;SDS011;41031;44.750;11.308;2023-02-03T10:41:40;181.23;;;68.97;;
55134;SDS011;41031;44.750;11.308;2023-02-03T10:44:07;188.63;;;70.77;;
55134;SDS011;41031;44.750;11.308;2023-02-03T10:46:38;174.77;;;73.63;;
55134;SDS011;41031;44.750;11.308;2023-02-03T10:49:08;193.23;;;74.87;;
55134;SDS011;41031;44.750;11.308;2023-02-03T10:51:41;180.30;;;70.97;;
55134;SDS011;41031;44.750;11.308;2023-02-03T10:57:09;189.53;;;77.43;;
55134;SDS011;41031;44.750;11.308;2023-02-03T10:59:45;180.20;;;74.60;;
55134;SDS011;41031;44.750;11.308;2023-02-03T11:07:43;205.80;;;74.80;;
55134;SDS011;41031;44.750;11.308;2023-02-03T11:10:28;177.37;;;73.27;;
55134;SDS011;41031;44.750;11.308;2023-02-03T11:13:11;170.17;;;73.60;;
55134;SDS011;41031;44.750;11.308;2023-02-03T11:21:32;184.53;;;79.17;;
55134;SDS011;41031;44.750;11.308;2023-02-03T11:31:57;197.40;;;87.10;;
55134;SDS011;41031;44.750;11.308;2023-02-03T11:34:30;186.10;;;85.63;;
55134;SDS011;41031;44.750;11.308;2023-02-03T11:39:56;197.97;;;88.50;;
55134;SDS011;41031;44.750;11.308;2023-02-03T11:42:41;192.93;;;86.30;;
55134;SDS011;41031;44.750;11.308;2023-02-03T12:10:15;182.83;;;83.90;;
55134;SDS011;41031;44.750;11.308;2023-02-03T12:12:52;197.33;;;88.27;;
55134;SDS011;41031;44.750;11.308;2023-02-03T12:29:49;169.30;;;79.90;;
55134;SDS011;41031;44.750;11.308;2023-02-03T12:35:10;183.50;;;86.43;;
55134;SDS011;41031;44.750;11.308;2023-02-03T12:40:26;169.00;;;83.67;;
55134;SDS011;41031;44.750;11.308;2023-02-03T12:48:55;168.90;;;82.30;;
55134;SDS011;41031;44.750;11.308;2023-02-03T12:56:51;161.73;;;81.03;;
55134;SDS011;41031;44.750;11.308;2023-02-03T12:59:21;167.10;;;83.10;;
55134;SDS011;41031;44.750;11.308;2023-02-03T13:01:53;151.37;;;82.17;;
55134;SDS011;41031;44.750;11.308;2023-02-03T13:10:14;150.50;;;77.93;;
55134;SDS011;41031;44.750;11.308;2023-02-03T13:12:57;151.63;;;78.73;;
55134;SDS011;41031;44.750;11.308;2023-02-03T13:15:44;160.37;;;81.00;;
55134;SDS011;41031;44.750;11.308;2023-02-03T13:20:52;148.87;;;77.30;;
55134;SDS011;41031;44.750;11.308;2023-02-03T13:23:19;154.77;;;79.27;;
55134;SDS011;41031;44.750;11.308;2023-02-03T13:42:18;148.93;;;75.67;;
55134;SDS011;41031;44.750;11.308;2023-02-03T13:44:52;143.23;;;74.10;;
55134;SDS011;41031;44.750;11.308;2023-02-03T13:47:24;152.33;;;75.63;;
55134;SDS011;41031;44.750;11.308;2023-02-03T13:49:55;152.83;;;76.40;;
55134;SDS011;41031;44.750;11.308;2023-02-03T13:54:55;136.70;;;70.60;;
55134;SDS011;41031;44.750;11.308;2023-02-03T13:57:35;133.50;;;70.87;;
55134;SDS011;41031;44.750;11.308;2023-02-03T14:00:05;139.93;;;72.67;;
55134;SDS011;41031;44.750;11.308;2023-02-03T14:02:53;139.37;;;71.07;;
55134;SDS011;41031;44.750;11.308;2023-02-03T14:05:38;140.67;;;71.23;;
55134;SDS011;41031;44.750;11.308;2023-02-03T14:08:40;142.73;;;71.30;;
55134;SDS011;41031;44.750;11.308;2023-02-03T14:19:08;125.23;;;66.03;;
55134;SDS011;41031;44.750;11.308;2023-02-03T14:21:47;142.33;;;70.97;;
55134;SDS011;41031;44.750;11.308;2023-02-03T14:24:18;136.87;;;70.20;;
55134;SDS011;41031;44.750;11.308;2023-02-03T14:26:50;131.83;;;68.07;;
55134;SDS011;41031;44.750;11.308;2023-02-03T14:29:27;129.83;;;68.07;;
55134;SDS011;41031;44.750;11.308;2023-02-03T14:34:38;128.10;;;66.40;;
55134;SDS011;41031;44.750;11.308;2023-02-03T14:37:14;123.43;;;64.97;;
55134;SDS011;41031;44.750;11.308;2023-02-03T14:48:07;129.50;;;64.47;;
55134;SDS011;41031;44.750;11.308;2023-02-03T14:56:48;123.27;;;63.83;;
55134;SDS011;41031;44.750;11.308;2023-02-03T15:02:24;109.97;;;58.57;;
55134;SDS011;41031;44.750;11.308;2023-02-03T15:07:49;103.40;;;54.70;;
55134;SDS011;41031;44.750;11.308;2023-02-03T15:10:18;116.70;;;59.80;;
55134;SDS011;41031;44.750;11.308;2023-02-03T15:13:30;111.70;;;57.67;;
55134;SDS011;41031;44.750;11.308;2023-02-03T15:15:59;109.50;;;56.97;;
55134;SDS011;41031;44.750;11.308;2023-02-03T15:18:35;110.37;;;57.27;;
55134;SDS011;41031;44.750;11.308;2023-02-03T15:21:03;113.37;;;58.27;;
55134;SDS011;41031;44.750;11.308;2023-02-03T15:23:37;109.10;;;56.93;;
55134;SDS011;41031;44.750;11.308;2023-02-03T15:26:12;103.57;;;57.17;;
55134;SDS011;41031;44.750;11.308;2023-02-03T15:28:41;112.20;;;56.63;;
55134;SDS011;41031;44.750;11.308;2023-02-03T15:33:42;116.10;;;57.77;;
55134;SDS011;41031;44.750;11.308;2023-02-03T15:36:21;116.00;;;57.77;;
55134;SDS011;41031;44.750;11.308;2023-02-03T15:38:55;106.43;;;55.60;;
55134;SDS011;41031;44.750;11.308;2023-02-03T15:41:30;114.70;;;56.07;;
55134;SDS011;41031;44.750;11.308;2023-02-03T15:43:59;116.50;;;58.23;;
55134;SDS011;41031;44.750;11.308;2023-02-03T15:49:06;113.67;;;56.97;;
55134;SDS011;41031;44.750;11.308;2023-02-03T15:56:53;112.60;;;58.27;;
55134;SDS011;41031;44.750;11.308;2023-02-03T15:59:31;110.33;;;58.40;;
55134;SDS011;41031;44.750;11.308;2023-02-03T16:02:13;113.07;;;59.37;;
55134;SDS011;41031;44.750;11.308;2023-02-03T16:04:46;117.47;;;60.63;;
55134;SDS011;41031;44.750;11.308;2023-02-03T16:07:24;116.73;;;60.33;;
55134;SDS011;41031;44.750;11.308;2023-02-03T16:09:55;118.47;;;57.77;;
55134;SDS011;41031;44.750;11.308;2023-02-03T16:12:24;113.70;;;59.67;;
55134;SDS011;41031;44.750;11.308;2023-02-03T16:14:59;119.00;;;59.77;;
55134;SDS011;41031;44.750;11.308;2023-02-03T16:17:29;120.70;;;59.50;;
55134;SDS011;41031;44.750;11.308;2023-02-03T16:22:42;113.67;;;56.37;;
55134;SDS011;41031;44.750;11.308;2023-02-03T16:25:12;111.87;;;56.73;;
55134;SDS011;41031;44.750;11.308;2023-02-03T16:30:59;118.10;;;58.43;;
55134;SDS011;41031;44.750;11.308;2023-02-03T16:33:48;132.50;;;61.20;;
55134;SDS011;41031;44.750;11.308;2023-02-03T16:36:38;128.57;;;61.47;;
55134;SDS011;41031;44.750;11.308;2023-02-03T16:39:24;120.90;;;58.43;;
55134;SDS011;41031;44.750;11.308;2023-02-03T16:42:14;119.27;;;61.30;;
55134;SDS011;41031;44.750;11.308;2023-02-03T16:45:03;114.70;;;59.73;;
55134;SDS011;41031;44.750;11.308;2023-02-03T16:47:57;129.67;;;59.93;;
55134;SDS011;41031;44.750;11.308;2023-02-03T16:50:43;133.87;;;61.40;;
55134;SDS011;41031;44.750;11.308;2023-02-03T16:53:25;122.00;;;63.40;;
55134;SDS011;41031;44.750;11.308;2023-02-03T16:55:57;138.97;;;67.30;;
55134;SDS011;41031;44.750;11.308;2023-02-03T16:58:26;140.30;;;62.93;;
55134;SDS011;41031;44.750;11.308;2023-02-03T17:00:53;135.07;;;63.23;;
55134;SDS011;41031;44.750;11.308;2023-02-03T17:03:22;129.10;;;64.13;;
55134;SDS011;41031;44.750;11.308;2023-02-03T17:05:50;135.87;;;64.40;;
55134;SDS011;41031;44.750;11.308;2023-02-03T17:08:19;115.50;;;57.97;;
55134;SDS011;41031;44.750;11.308;2023-02-03T17:10:47;122.50;;;61.70;;
55134;SDS011;41031;44.750;11.308;2023-02-03T17:13:15;142.53;;;67.73;;
55134;SDS011;41031;44.750;11.308;2023-02-03T17:15:44;130.93;;;64.67;;
55134;SDS011;41031;44.750;11.308;2023-02-03T17:18:13;159.57;;;77.93;;
55134;SDS011;41031;44.750;11.308;2023-02-03T17:20:42;153.97;;;69.77;;
55134;SDS011;41031;44.750;11.308;2023-02-03T17:23:10;172.60;;;76.00;;
55134;SDS011;41031;44.750;11.308;2023-02-03T17:25:38;137.00;;;64.83;;
55134;SDS011;41031;44.750;11.308;2023-02-03T17:28:06;141.87;;;64.70;;
55134;SDS011;41031;44.750;11.308;2023-02-03T17:30:34;131.07;;;66.87;;
55134;SDS011;41031;44.750;11.308;2023-02-03T17:33:02;144.13;;;67.30;;
55134;SDS011;41031;44.750;11.308;2023-02-03T17:35:43;134.00;;;63.63;;
55134;SDS011;41031;44.750;11.308;2023-02-03T17:38:11;123.20;;;62.23;;
55134;SDS011;41031;44.750;11.308;2023-02-03T17:40:40;125.87;;;62.03;;
55134;SDS011;41031;44.750;11.308;2023-02-03T17:43:26;121.93;;;60.47;;